sensor_id;sensor_type;location;lat;lon;timestamp;temperature;humidity
36416;DHT22;22447;44.530;18.620;2023-09-08T00:01:39;14.80;99.90
36416;DHT22;22447;44.530;18.620;2023-09-08T00:04:05;14.80;99.90
36416;DHT22;22447;44.530;18.620;2023-09-08T00:06:32;14.80;99.90
36416;DHT22;22447;44.530;18.620;2023-09-08T00:08:57;14.70;99.90
36416;DHT22;22447;44.530;18.620;2023-09-08T00:11:23;14.90;99.90
36416;DHT22;22447;44.530;18.620;2023-09-08T00:13:49;14.80;99.90
36416;DHT22;22447;44.530;18.620;2023-09-08T00:16:16;14.80;99.90
36416;DHT22;22447;44.530;18.620;2023-09-08T00:18:42;14.70;99.90
36416;DHT22;22447;44.530;18.620;2023-09-08T00:21:08;14.70;99.90
36416;DHT22;22447;44.530;18.620;2023-09-08T00:23:34;14.70;99.90
36416;DHT22;22447;44.530;18.620;2023-09-08T00:25:59;14.60;99.90
36416;DHT22;22447;44.530;18.620;2023-09-08T00:28:25;14.70;99.90
36416;DHT22;22447;44.530;18.620;2023-09-08T00:30:51;14.70;99.90
36416;DHT22;22447;44.530;18.620;2023-09-08T00:33:17;14.70;99.90
36416;DHT22;22447;44.530;18.620;2023-09-08T00:35:49;14.70;99.90
36416;DHT22;22447;44.530;18.620;2023-09-08T00:38:15;14.60;99.90
36416;DHT22;22447;44.530;18.620;2023-09-08T00:40:41;14.70;99.90
36416;DHT22;22447;44.530;18.620;2023-09-08T00:43:07;14.70;99.90
36416;DHT22;22447;44.530;18.620;2023-09-08T00:45:38;14.60;99.90
36416;DHT22;22447;44.530;18.620;2023-09-08T00:48:06;14.60;99.90
36416;DHT22;22447;44.530;18.620;2023-09-08T00:50:33;14.40;99.90
36416;DHT22;22447;44.530;18.620;2023-09-08T00:52:59;14.40;99.90
36416;DHT22;22447;44.530;18.620;2023-09-08T00:55:25;14.40;99.90
36416;DHT22;22447;44.530;18.620;2023-09-08T00:57:51;14.40;99.90
36416;DHT22;22447;44.530;18.620;2023-09-08T01:00:17;14.40;99.90
36416;DHT22;22447;44.530;18.620;2023-09-08T01:02:43;14.30;99.90
36416;DHT22;22447;44.530;18.620;2023-09-08T01:05:11;14.30;99.90
36416;DHT22;22447;44.530;18.620;2023-09-08T01:07:38;14.20;99.90
36416;DHT22;22447;44.530;18.620;2023-09-08T01:10:05;14.20;99.90
36416;DHT22;22447;44.530;18.620;2023-09-08T01:12:33;14.30;99.90
36416;DHT22;22447;44.530;18.620;2023-09-08T01:15:06;14.30;99.90
36416;DHT22;22447;44.530;18.620;2023-09-08T01:17:33;14.20;99.90
36416;DHT22;22447;44.530;18.620;2023-09-08T01:20:04;14.20;99.90
36416;DHT22;22447;44.530;18.620;2023-09-08T01:22:48;14.40;99.90
36416;DHT22;22447;44.530;18.620;2023-09-08T01:25:19;14.40;99.90
36416;DHT22;22447;44.530;18.620;2023-09-08T01:27:50;14.40;99.90
36416;DHT22;22447;44.530;18.620;2023-09-08T01:30:16;14.40;99.90
36416;DHT22;22447;44.530;18.620;2023-09-08T01:32:44;14.30;99.90
36416;DHT22;22447;44.530;18.620;2023-09-08T01:35:11;14.30;99.90
36416;DHT22;22447;44.530;18.620;2023-09-08T01:37:40;14.20;99.90
36416;DHT22;22447;44.530;18.620;2023-09-08T01:40:07;14.30;99.90
36416;DHT22;22447;44.530;18.620;2023-09-08T01:42:33;14.20;99.90
36416;DHT22;22447;44.530;18.620;2023-09-08T01:44:59;14.10;99.90
36416;DHT22;22447;44.530;18.620;2023-09-08T01:47:29;14.10;99.90
36416;DHT22;22447;44.530;18.620;2023-09-08T01:49:55;14.10;99.90
36416;DHT22;22447;44.530;18.620;2023-09-08T01:52:20;14.10;99.90
36416;DHT22;22447;44.530;18.620;2023-09-08T01:54:46;14.00;99.90
36416;DHT22;22447;44.530;18.620;2023-09-08T01:57:12;14.00;99.90
36416;DHT22;22447;44.530;18.620;2023-09-08T01:59:38;14.00;99.90
36416;DHT22;22447;44.530;18.620;2023-09-08T02:02:04;13.90;99.90
36416;DHT22;22447;44.530;18.620;2023-09-08T02:04:30;13.90;99.90
36416;DHT22;22447;44.530;18.620;2023-09-08T02:06:56;14.00;99.90
36416;DHT22;22447;44.530;18.620;2023-09-08T02:09:33;13.90;99.90
36416;DHT22;22447;44.530;18.620;2023-09-08T02:12:00;13.80;99.90
36416;DHT22;22447;44.530;18.620;2023-09-08T02:14:26;13.80;99.90
36416;DHT22;22447;44.530;18.620;2023-09-08T02:16:57;13.80;99.90
36416;DHT22;22447;44.530;18.620;2023-09-08T02:19:23;13.80;99.90
36416;DHT22;22447;44.530;18.620;2023-09-08T02:21:49;13.70;99.90
36416;DHT22;22447;44.530;18.620;2023-09-08T02:24:15;13.70;99.90
36416;DHT22;22447;44.530;18.620;2023-09-08T02:26:42;13.60;99.90
36416;DHT22;22447;44.530;18.620;2023-09-08T02:29:08;13.70;99.90
36416;DHT22;22447;44.530;18.620;2023-09-08T02:31:34;13.60;99.90
36416;DHT22;22447;44.530;18.620;2023-09-08T02:34:03;13.70;99.90
36416;DHT22;22447;44.530;18.620;2023-09-08T02:36:30;13.80;99.90
36416;DHT22;22447;44.530;18.620;2023-09-08T02:38:57;13.90;99.90
36416;DHT22;22447;44.530;18.620;2023-09-08T02:41:24;13.80;99.90
36416;DHT22;22447;44.530;18.620;2023-09-08T02:43:50;13.80;99.90
36416;DHT22;22447;44.530;18.620;2023-09-08T02:46:18;13.80;99.90
36416;DHT22;22447;44.530;18.620;2023-09-08T02:48:44;13.70;99.90
36416;DHT22;22447;44.530;18.620;2023-09-08T02:51:10;13.70;99.90
36416;DHT22;22447;44.530;18.620;2023-09-08T02:53:37;13.50;99.90
36416;DHT22;22447;44.530;18.620;2023-09-08T02:56:03;13.50;99.90
36416;DHT22;22447;44.530;18.620;2023-09-08T02:58:31;13.50;99.90
36416;DHT22;22447;44.530;18.620;2023-09-08T03:01:13;13.50;99.90
36416;DHT22;22447;44.530;18.620;2023-09-08T03:03:41;13.40;99.90
36416;DHT22;22447;44.530;18.620;2023-09-08T03:06:07;13.50;99.90
36416;DHT22;22447;44.530;18.620;2023-09-08T03:08:33;13.50;99.90
36416;DHT22;22447;44.530;18.620;2023-09-08T03:11:00;13.40;99.90
36416;DHT22;22447;44.530;18.620;2023-09-08T03:13:26;13.30;99.90
36416;DHT22;22447;44.530;18.620;2023-09-08T03:15:52;13.30;99.90
36416;DHT22;22447;44.530;18.620;2023-09-08T03:18:18;13.40;99.90
36416;DHT22;22447;44.530;18.620;2023-09-08T03:20:48;13.40;99.90
36416;DHT22;22447;44.530;18.620;2023-09-08T03:23:16;13.30;99.90
36416;DHT22;22447;44.530;18.620;2023-09-08T03:25:43;13.30;99.90
36416;DHT22;22447;44.530;18.620;2023-09-08T03:28:09;13.30;99.90
36416;DHT22;22447;44.530;18.620;2023-09-08T03:30:35;13.30;99.90
36416;DHT22;22447;44.530;18.620;2023-09-08T03:33:01;13.20;99.90
36416;DHT22;22447;44.530;18.620;2023-09-08T03:35:27;13.20;99.90
36416;DHT22;22447;44.530;18.620;2023-09-08T03:37:53;13.20;99.90
36416;DHT22;22447;44.530;18.620;2023-09-08T03:40:19;13.10;99.90
36416;DHT22;22447;44.530;18.620;2023-09-08T03:42:45;13.10;99.90
36416;DHT22;22447;44.530;18.620;2023-09-08T03:45:11;13.10;99.90
36416;DHT22;22447;44.530;18.620;2023-09-08T03:47:37;13.10;99.90
36416;DHT22;22447;44.530;18.620;2023-09-08T03:50:03;13.10;99.90
36416;DHT22;22447;44.530;18.620;2023-09-08T03:52:29;13.10;99.90
36416;DHT22;22447;44.530;18.620;2023-09-08T03:54:55;13.10;99.90
36416;DHT22;22447;44.530;18.620;2023-09-08T03:57:21;13.00;99.90
36416;DHT22;22447;44.530;18.620;2023-09-08T03:59:47;13.00;99.90
36416;DHT22;22447;44.530;18.620;2023-09-08T04:02:13;13.00;99.90
36416;DHT22;22447;44.530;18.620;2023-09-08T04:04:39;13.00;99.90
36416;DHT22;22447;44.530;18.620;2023-09-08T04:07:05;12.90;99.90
36416;DHT22;22447;44.530;18.620;2023-09-08T04:09:31;12.90;99.90
36416;DHT22;22447;44.530;18.620;2023-09-08T04:11:57;12.90;99.90
36416;DHT22;22447;44.530;18.620;2023-09-08T04:14:23;12.80;99.90
36416;DHT22;22447;44.530;18.620;2023-09-08T04:16:53;12.80;99.90
36416;DHT22;22447;44.530;18.620;2023-09-08T04:19:19;12.90;99.90
36416;DHT22;22447;44.530;18.620;2023-09-08T04:21:45;12.90;99.90
36416;DHT22;22447;44.530;18.620;2023-09-08T04:24:11;12.90;99.90
36416;DHT22;22447;44.530;18.620;2023-09-08T04:26:37;12.80;99.90
36416;DHT22;22447;44.530;18.620;2023-09-08T04:29:04;12.80;99.90
36416;DHT22;22447;44.530;18.620;2023-09-08T04:31:30;12.90;99.90
36416;DHT22;22447;44.530;18.620;2023-09-08T04:33:56;12.90;99.90
36416;DHT22;22447;44.530;18.620;2023-09-08T04:36:22;13.00;99.90
36416;DHT22;22447;44.530;18.620;2023-09-08T04:38:49;13.00;99.90
36416;DHT22;22447;44.530;18.620;2023-09-08T04:41:15;12.90;99.90
36416;DHT22;22447;44.530;18.620;2023-09-08T04:43:40;12.90;99.90
36416;DHT22;22447;44.530;18.620;2023-09-08T04:46:06;12.90;99.90
36416;DHT22;22447;44.530;18.620;2023-09-08T04:48:34;13.00;99.90
36416;DHT22;22447;44.530;18.620;2023-09-08T04:51:00;13.10;99.90
36416;DHT22;22447;44.530;18.620;2023-09-08T04:53:28;13.30;99.90
36416;DHT22;22447;44.530;18.620;2023-09-08T04:55:54;13.40;99.90
36416;DHT22;22447;44.530;18.620;2023-09-08T04:58:20;13.50;99.90
36416;DHT22;22447;44.530;18.620;2023-09-08T05:00:48;13.60;99.90
36416;DHT22;22447;44.530;18.620;2023-09-08T05:03:14;13.60;99.90
36416;DHT22;22447;44.530;18.620;2023-09-08T05:05:40;13.70;99.90
36416;DHT22;22447;44.530;18.620;2023-09-08T05:08:06;13.90;99.90
36416;DHT22;22447;44.530;18.620;2023-09-08T05:10:32;13.90;99.90
36416;DHT22;22447;44.530;18.620;2023-09-08T05:12:58;14.00;99.90
36416;DHT22;22447;44.530;18.620;2023-09-08T05:15:26;14.00;99.90
36416;DHT22;22447;44.530;18.620;2023-09-08T05:17:53;14.20;99.90
36416;DHT22;22447;44.530;18.620;2023-09-08T05:20:20;14.30;99.90
36416;DHT22;22447;44.530;18.620;2023-09-08T05:22:46;14.40;99.90
36416;DHT22;22447;44.530;18.620;2023-09-08T05:25:12;14.50;99.90
36416;DHT22;22447;44.530;18.620;2023-09-08T05:27:38;14.60;99.90
36416;DHT22;22447;44.530;18.620;2023-09-08T05:30:05;14.60;99.90
36416;DHT22;22447;44.530;18.620;2023-09-08T05:32:33;14.70;99.90
36416;DHT22;22447;44.530;18.620;2023-09-08T05:34:59;14.80;99.90
36416;DHT22;22447;44.530;18.620;2023-09-08T05:37:25;14.90;99.90
36416;DHT22;22447;44.530;18.620;2023-09-08T05:39:51;15.00;99.90
36416;DHT22;22447;44.530;18.620;2023-09-08T05:42:17;15.20;99.90
36416;DHT22;22447;44.530;18.620;2023-09-08T05:44:43;15.30;99.90
36416;DHT22;22447;44.530;18.620;2023-09-08T05:47:11;15.30;99.90
36416;DHT22;22447;44.530;18.620;2023-09-08T05:49:37;15.40;99.90
36416;DHT22;22447;44.530;18.620;2023-09-08T05:52:03;15.60;99.90
36416;DHT22;22447;44.530;18.620;2023-09-08T05:54:30;15.60;99.90
36416;DHT22;22447;44.530;18.620;2023-09-08T05:56:56;15.70;99.90
36416;DHT22;22447;44.530;18.620;2023-09-08T05:59:22;15.90;99.90
36416;DHT22;22447;44.530;18.620;2023-09-08T06:01:48;15.90;99.90
36416;DHT22;22447;44.530;18.620;2023-09-08T06:04:16;16.00;99.90
36416;DHT22;22447;44.530;18.620;2023-09-08T06:06:42;16.40;99.90
36416;DHT22;22447;44.530;18.620;2023-09-08T06:09:09;16.50;99.90
36416;DHT22;22447;44.530;18.620;2023-09-08T06:11:37;16.70;99.90
36416;DHT22;22447;44.530;18.620;2023-09-08T06:14:04;16.90;99.90
36416;DHT22;22447;44.530;18.620;2023-09-08T06:16:38;17.20;99.90
36416;DHT22;22447;44.530;18.620;2023-09-08T06:19:06;17.50;99.90
36416;DHT22;22447;44.530;18.620;2023-09-08T06:21:32;17.80;99.90
36416;DHT22;22447;44.530;18.620;2023-09-08T06:23:59;18.00;99.90
36416;DHT22;22447;44.530;18.620;2023-09-08T06:26:25;18.50;99.90
36416;DHT22;22447;44.530;18.620;2023-09-08T06:28:51;18.80;99.90
36416;DHT22;22447;44.530;18.620;2023-09-08T06:31:19;19.20;99.90
36416;DHT22;22447;44.530;18.620;2023-09-08T06:33:46;19.50;99.90
36416;DHT22;22447;44.530;18.620;2023-09-08T06:36:12;19.80;99.90
36416;DHT22;22447;44.530;18.620;2023-09-08T06:38:38;20.00;99.60
36416;DHT22;22447;44.530;18.620;2023-09-08T06:41:11;20.10;99.00
36416;DHT22;22447;44.530;18.620;2023-09-08T06:43:37;20.40;98.70
36416;DHT22;22447;44.530;18.620;2023-09-08T06:46:09;20.60;97.90
36416;DHT22;22447;44.530;18.620;2023-09-08T06:48:35;20.80;97.10
36416;DHT22;22447;44.530;18.620;2023-09-08T06:51:01;21.10;95.80
36416;DHT22;22447;44.530;18.620;2023-09-08T06:53:27;21.10;94.90
36416;DHT22;22447;44.530;18.620;2023-09-08T06:55:53;21.30;94.70
36416;DHT22;22447;44.530;18.620;2023-09-08T06:58:19;21.70;94.90
36416;DHT22;22447;44.530;18.620;2023-09-08T07:00:45;22.00;93.20
36416;DHT22;22447;44.530;18.620;2023-09-08T07:03:11;22.50;93.00
36416;DHT22;22447;44.530;18.620;2023-09-08T07:05:40;22.50;91.30
36416;DHT22;22447;44.530;18.620;2023-09-08T07:08:07;22.60;90.70
36416;DHT22;22447;44.530;18.620;2023-09-08T07:10:33;23.00;90.00
36416;DHT22;22447;44.530;18.620;2023-09-08T07:12:59;23.10;88.40
36416;DHT22;22447;44.530;18.620;2023-09-08T07:15:25;23.10;86.10
36416;DHT22;22447;44.530;18.620;2023-09-08T07:17:52;23.30;86.30
36416;DHT22;22447;44.530;18.620;2023-09-08T07:20:18;23.90;85.40
36416;DHT22;22447;44.530;18.620;2023-09-08T07:22:45;24.10;82.60
36416;DHT22;22447;44.530;18.620;2023-09-08T07:25:12;24.70;80.30
36416;DHT22;22447;44.530;18.620;2023-09-08T07:27:39;24.90;75.70
36416;DHT22;22447;44.530;18.620;2023-09-08T07:30:06;25.20;73.40
36416;DHT22;22447;44.530;18.620;2023-09-08T07:32:33;25.30;69.60
36416;DHT22;22447;44.530;18.620;2023-09-08T07:35:01;25.30;69.80
36416;DHT22;22447;44.530;18.620;2023-09-08T07:37:30;25.30;68.70
36416;DHT22;22447;44.530;18.620;2023-09-08T07:39:56;25.70;69.00
36416;DHT22;22447;44.530;18.620;2023-09-08T07:42:22;26.10;65.90
36416;DHT22;22447;44.530;18.620;2023-09-08T07:44:49;26.20;65.60
36416;DHT22;22447;44.530;18.620;2023-09-08T07:47:15;26.50;64.60
36416;DHT22;22447;44.530;18.620;2023-09-08T07:49:46;26.50;61.90
36416;DHT22;22447;44.530;18.620;2023-09-08T07:52:13;26.40;61.80
36416;DHT22;22447;44.530;18.620;2023-09-08T07:54:39;26.50;59.10
36416;DHT22;22447;44.530;18.620;2023-09-08T07:57:05;26.70;58.60
36416;DHT22;22447;44.530;18.620;2023-09-08T07:59:31;26.90;57.70
36416;DHT22;22447;44.530;18.620;2023-09-08T08:01:57;26.90;55.80
36416;DHT22;22447;44.530;18.620;2023-09-08T08:04:23;26.90;54.40
36416;DHT22;22447;44.530;18.620;2023-09-08T08:06:49;27.50;55.20
36416;DHT22;22447;44.530;18.620;2023-09-08T08:09:18;27.80;54.60
36416;DHT22;22447;44.530;18.620;2023-09-08T08:11:44;27.60;51.90
36416;DHT22;22447;44.530;18.620;2023-09-08T08:14:10;28.00;51.80
36416;DHT22;22447;44.530;18.620;2023-09-08T08:16:36;28.10;52.20
36416;DHT22;22447;44.530;18.620;2023-09-08T08:19:02;28.20;52.70
36416;DHT22;22447;44.530;18.620;2023-09-08T08:21:28;28.40;50.50
36416;DHT22;22447;44.530;18.620;2023-09-08T08:23:55;29.10;52.50
36416;DHT22;22447;44.530;18.620;2023-09-08T08:26:24;28.90;48.80
36416;DHT22;22447;44.530;18.620;2023-09-08T08:28:54;28.90;48.10
36416;DHT22;22447;44.530;18.620;2023-09-08T08:31:20;29.30;48.30
36416;DHT22;22447;44.530;18.620;2023-09-08T08:33:45;29.30;47.50
36416;DHT22;22447;44.530;18.620;2023-09-08T08:36:11;29.60;45.30
36416;DHT22;22447;44.530;18.620;2023-09-08T08:38:37;30.20;45.60
36416;DHT22;22447;44.530;18.620;2023-09-08T08:41:04;30.50;44.10
36416;DHT22;22447;44.530;18.620;2023-09-08T08:43:32;30.20;44.20
36416;DHT22;22447;44.530;18.620;2023-09-08T08:45:58;30.50;44.30
36416;DHT22;22447;44.530;18.620;2023-09-08T08:48:25;30.70;44.40
36416;DHT22;22447;44.530;18.620;2023-09-08T08:50:53;30.50;42.90
36416;DHT22;22447;44.530;18.620;2023-09-08T08:53:21;30.70;42.60
36416;DHT22;22447;44.530;18.620;2023-09-08T08:55:47;30.90;41.60
36416;DHT22;22447;44.530;18.620;2023-09-08T08:58:14;30.70;41.00
36416;DHT22;22447;44.530;18.620;2023-09-08T09:00:41;30.20;41.70
36416;DHT22;22447;44.530;18.620;2023-09-08T09:03:07;30.10;42.30
36416;DHT22;22447;44.530;18.620;2023-09-08T09:05:36;30.50;41.80
36416;DHT22;22447;44.530;18.620;2023-09-08T09:08:03;30.90;41.60
36416;DHT22;22447;44.530;18.620;2023-09-08T09:10:31;31.00;38.40
36416;DHT22;22447;44.530;18.620;2023-09-08T09:12:57;31.50;39.10
36416;DHT22;22447;44.530;18.620;2023-09-08T09:15:29;31.10;38.00
36416;DHT22;22447;44.530;18.620;2023-09-08T09:18:05;31.30;37.60
36416;DHT22;22447;44.530;18.620;2023-09-08T09:20:32;30.70;38.70
36416;DHT22;22447;44.530;18.620;2023-09-08T09:22:58;29.20;41.00
36416;DHT22;22447;44.530;18.620;2023-09-08T09:25:29;29.90;39.50
36416;DHT22;22447;44.530;18.620;2023-09-08T09:28:00;31.00;40.30
36416;DHT22;22447;44.530;18.620;2023-09-08T09:30:27;31.80;38.30
36416;DHT22;22447;44.530;18.620;2023-09-08T09:33:03;32.20;36.10
36416;DHT22;22447;44.530;18.620;2023-09-08T09:35:59;32.80;34.30
36416;DHT22;22447;44.530;18.620;2023-09-08T09:38:26;32.70;32.90
36416;DHT22;22447;44.530;18.620;2023-09-08T09:40:52;31.70;33.40
36416;DHT22;22447;44.530;18.620;2023-09-08T09:43:21;31.80;31.10
36416;DHT22;22447;44.530;18.620;2023-09-08T09:45:48;31.70;34.70
36416;DHT22;22447;44.530;18.620;2023-09-08T09:48:14;32.60;31.20
36416;DHT22;22447;44.530;18.620;2023-09-08T09:50:42;32.40;29.80
36416;DHT22;22447;44.530;18.620;2023-09-08T09:53:13;30.80;31.70
36416;DHT22;22447;44.530;18.620;2023-09-08T09:55:41;31.30;30.70
36416;DHT22;22447;44.530;18.620;2023-09-08T09:58:08;31.80;30.00
36416;DHT22;22447;44.530;18.620;2023-09-08T10:00:36;31.50;27.50
36416;DHT22;22447;44.530;18.620;2023-09-08T10:03:04;31.30;27.40
36416;DHT22;22447;44.530;18.620;2023-09-08T10:05:30;30.60;27.90
36416;DHT22;22447;44.530;18.620;2023-09-08T10:07:56;31.60;27.80
36416;DHT22;22447;44.530;18.620;2023-09-08T10:10:26;31.40;27.40
36416;DHT22;22447;44.530;18.620;2023-09-08T10:12:54;32.20;28.00
36416;DHT22;22447;44.530;18.620;2023-09-08T10:15:22;32.40;26.20
36416;DHT22;22447;44.530;18.620;2023-09-08T10:17:53;32.80;25.40
36416;DHT22;22447;44.530;18.620;2023-09-08T10:20:23;31.80;26.10
36416;DHT22;22447;44.530;18.620;2023-09-08T10:22:54;31.40;27.90
36416;DHT22;22447;44.530;18.620;2023-09-08T10:25:23;31.30;27.80
36416;DHT22;22447;44.530;18.620;2023-09-08T10:27:50;30.70;27.60
36416;DHT22;22447;44.530;18.620;2023-09-08T10:30:17;30.20;28.20
36416;DHT22;22447;44.530;18.620;2023-09-08T10:32:46;30.80;28.10
36416;DHT22;22447;44.530;18.620;2023-09-08T10:35:16;31.60;27.20
36416;DHT22;22447;44.530;18.620;2023-09-08T10:37:43;31.80;26.50
36416;DHT22;22447;44.530;18.620;2023-09-08T10:40:25;31.70;26.60
36416;DHT22;22447;44.530;18.620;2023-09-08T10:43:09;32.20;26.40
36416;DHT22;22447;44.530;18.620;2023-09-08T10:45:35;31.20;27.10
36416;DHT22;22447;44.530;18.620;2023-09-08T10:48:06;31.10;26.80
36416;DHT22;22447;44.530;18.620;2023-09-08T10:50:34;30.70;26.50
36416;DHT22;22447;44.530;18.620;2023-09-08T10:53:16;30.70;28.30
36416;DHT22;22447;44.530;18.620;2023-09-08T10:55:45;31.20;27.40
36416;DHT22;22447;44.530;18.620;2023-09-08T10:58:36;32.30;27.90
36416;DHT22;22447;44.530;18.620;2023-09-08T11:01:05;33.00;25.60
36416;DHT22;22447;44.530;18.620;2023-09-08T11:06:04;32.50;25.00
36416;DHT22;22447;44.530;18.620;2023-09-08T11:08:30;33.20;24.90
36416;DHT22;22447;44.530;18.620;2023-09-08T11:10:56;32.80;21.50
36416;DHT22;22447;44.530;18.620;2023-09-08T11:13:22;33.10;24.90
36416;DHT22;22447;44.530;18.620;2023-09-08T11:15:52;33.80;23.00
36416;DHT22;22447;44.530;18.620;2023-09-08T11:18:25;33.60;23.30
36416;DHT22;22447;44.530;18.620;2023-09-08T11:20:54;34.10;22.00
36416;DHT22;22447;44.530;18.620;2023-09-08T11:23:21;33.00;21.60
36416;DHT22;22447;44.530;18.620;2023-09-08T11:25:49;32.50;23.60
36416;DHT22;22447;44.530;18.620;2023-09-08T11:28:16;32.60;23.00
36416;DHT22;22447;44.530;18.620;2023-09-08T11:30:42;32.80;22.50
36416;DHT22;22447;44.530;18.620;2023-09-08T11:33:21;32.20;23.90
36416;DHT22;22447;44.530;18.620;2023-09-08T11:35:54;32.50;24.00
36416;DHT22;22447;44.530;18.620;2023-09-08T11:38:25;31.80;24.00
36416;DHT22;22447;44.530;18.620;2023-09-08T11:40:56;31.80;24.70
36416;DHT22;22447;44.530;18.620;2023-09-08T11:43:26;31.40;24.30
36416;DHT22;22447;44.530;18.620;2023-09-08T11:45:53;32.40;23.80
36416;DHT22;22447;44.530;18.620;2023-09-08T11:48:19;33.20;22.50
36416;DHT22;22447;44.530;18.620;2023-09-08T11:50:45;33.70;23.00
36416;DHT22;22447;44.530;18.620;2023-09-08T11:53:11;34.30;21.80
36416;DHT22;22447;44.530;18.620;2023-09-08T11:55:37;33.00;21.30
36416;DHT22;22447;44.530;18.620;2023-09-08T11:58:03;32.30;22.60
36416;DHT22;22447;44.530;18.620;2023-09-08T12:00:30;32.10;22.70
36416;DHT22;22447;44.530;18.620;2023-09-08T12:02:58;31.80;24.30
36416;DHT22;22447;44.530;18.620;2023-09-08T12:05:34;32.00;24.50
36416;DHT22;22447;44.530;18.620;2023-09-08T12:08:04;32.70;23.60
36416;DHT22;22447;44.530;18.620;2023-09-08T12:10:42;31.00;24.30
36416;DHT22;22447;44.530;18.620;2023-09-08T12:13:09;31.50;24.40
36416;DHT22;22447;44.530;18.620;2023-09-08T12:15:42;31.80;23.20
36416;DHT22;22447;44.530;18.620;2023-09-08T12:18:12;32.60;23.50
36416;DHT22;22447;44.530;18.620;2023-09-08T12:20:39;33.20;23.50
36416;DHT22;22447;44.530;18.620;2023-09-08T12:23:14;33.10;22.30
36416;DHT22;22447;44.530;18.620;2023-09-08T12:25:48;33.00;23.00
36416;DHT22;22447;44.530;18.620;2023-09-08T12:28:16;33.40;22.70
36416;DHT22;22447;44.530;18.620;2023-09-08T12:30:43;33.60;23.10
36416;DHT22;22447;44.530;18.620;2023-09-08T12:33:13;33.10;22.90
36416;DHT22;22447;44.530;18.620;2023-09-08T12:35:44;33.40;22.50
36416;DHT22;22447;44.530;18.620;2023-09-08T12:38:10;31.80;23.40
36416;DHT22;22447;44.530;18.620;2023-09-08T12:40:37;31.70;23.50
36416;DHT22;22447;44.530;18.620;2023-09-08T12:43:04;31.20;24.70
36416;DHT22;22447;44.530;18.620;2023-09-08T12:45:31;31.80;24.60
36416;DHT22;22447;44.530;18.620;2023-09-08T12:48:01;31.20;24.40
36416;DHT22;22447;44.530;18.620;2023-09-08T12:50:29;31.80;24.60
36416;DHT22;22447;44.530;18.620;2023-09-08T12:52:55;31.90;23.40
36416;DHT22;22447;44.530;18.620;2023-09-08T12:55:21;31.60;24.60
36416;DHT22;22447;44.530;18.620;2023-09-08T12:57:47;31.40;24.60
36416;DHT22;22447;44.530;18.620;2023-09-08T13:00:14;31.60;24.00
36416;DHT22;22447;44.530;18.620;2023-09-08T13:02:40;30.90;23.30
36416;DHT22;22447;44.530;18.620;2023-09-08T13:05:07;31.00;25.50
36416;DHT22;22447;44.530;18.620;2023-09-08T13:07:33;31.60;24.60
36416;DHT22;22447;44.530;18.620;2023-09-08T13:09:59;31.70;24.40
36416;DHT22;22447;44.530;18.620;2023-09-08T13:12:25;32.20;24.00
36416;DHT22;22447;44.530;18.620;2023-09-08T13:14:54;32.70;23.40
36416;DHT22;22447;44.530;18.620;2023-09-08T13:17:21;32.60;22.20
36416;DHT22;22447;44.530;18.620;2023-09-08T13:19:47;32.20;22.80
36416;DHT22;22447;44.530;18.620;2023-09-08T13:22:13;32.50;22.50
36416;DHT22;22447;44.530;18.620;2023-09-08T13:24:39;32.70;22.60
36416;DHT22;22447;44.530;18.620;2023-09-08T13:27:05;33.00;22.20
36416;DHT22;22447;44.530;18.620;2023-09-08T13:29:31;33.00;21.80
36416;DHT22;22447;44.530;18.620;2023-09-08T13:31:57;32.70;22.20
36416;DHT22;22447;44.530;18.620;2023-09-08T13:34:24;32.50;22.10
36416;DHT22;22447;44.530;18.620;2023-09-08T13:36:50;32.20;22.40
36416;DHT22;22447;44.530;18.620;2023-09-08T13:39:16;31.70;22.80
36416;DHT22;22447;44.530;18.620;2023-09-08T13:41:53;31.30;22.90
36416;DHT22;22447;44.530;18.620;2023-09-08T13:44:20;31.20;24.10
36416;DHT22;22447;44.530;18.620;2023-09-08T13:46:47;30.80;22.90
36416;DHT22;22447;44.530;18.620;2023-09-08T13:49:14;31.10;23.60
36416;DHT22;22447;44.530;18.620;2023-09-08T13:51:40;31.20;23.20
36416;DHT22;22447;44.530;18.620;2023-09-08T13:54:07;31.40;22.00
36416;DHT22;22447;44.530;18.620;2023-09-08T13:56:33;31.40;22.90
36416;DHT22;22447;44.530;18.620;2023-09-08T13:59:00;31.60;21.50
36416;DHT22;22447;44.530;18.620;2023-09-08T14:01:27;31.70;21.00
36416;DHT22;22447;44.530;18.620;2023-09-08T14:03:57;32.00;21.70
36416;DHT22;22447;44.530;18.620;2023-09-08T14:06:23;31.50;21.80
36416;DHT22;22447;44.530;18.620;2023-09-08T14:08:50;31.70;21.60
36416;DHT22;22447;44.530;18.620;2023-09-08T14:11:16;31.70;22.20
36416;DHT22;22447;44.530;18.620;2023-09-08T14:13:42;31.50;21.80
36416;DHT22;22447;44.530;18.620;2023-09-08T14:16:09;31.60;22.10
36416;DHT22;22447;44.530;18.620;2023-09-08T14:18:35;31.40;21.40
36416;DHT22;22447;44.530;18.620;2023-09-08T14:21:01;31.50;22.50
36416;DHT22;22447;44.530;18.620;2023-09-08T14:23:27;31.40;22.40
36416;DHT22;22447;44.530;18.620;2023-09-08T14:25:54;31.20;22.50
36416;DHT22;22447;44.530;18.620;2023-09-08T14:28:20;31.20;22.60
36416;DHT22;22447;44.530;18.620;2023-09-08T14:30:47;31.20;21.90
36416;DHT22;22447;44.530;18.620;2023-09-08T14:33:12;31.00;22.40
36416;DHT22;22447;44.530;18.620;2023-09-08T14:35:42;31.10;22.00
36416;DHT22;22447;44.530;18.620;2023-09-08T14:38:17;31.20;22.90
36416;DHT22;22447;44.530;18.620;2023-09-08T14:40:43;31.30;22.70
36416;DHT22;22447;44.530;18.620;2023-09-08T14:43:09;31.20;22.60
36416;DHT22;22447;44.530;18.620;2023-09-08T14:45:35;31.10;23.20
36416;DHT22;22447;44.530;18.620;2023-09-08T14:48:01;30.70;22.80
36416;DHT22;22447;44.530;18.620;2023-09-08T14:50:27;30.90;24.00
36416;DHT22;22447;44.530;18.620;2023-09-08T14:52:53;30.80;23.90
36416;DHT22;22447;44.530;18.620;2023-09-08T14:55:19;30.80;24.00
36416;DHT22;22447;44.530;18.620;2023-09-08T14:57:45;30.60;24.60
36416;DHT22;22447;44.530;18.620;2023-09-08T15:00:11;30.50;24.80
36416;DHT22;22447;44.530;18.620;2023-09-08T15:02:37;30.40;24.90
36416;DHT22;22447;44.530;18.620;2023-09-08T15:05:03;30.40;25.70
36416;DHT22;22447;44.530;18.620;2023-09-08T15:07:30;30.40;25.70
36416;DHT22;22447;44.530;18.620;2023-09-08T15:09:56;30.30;26.20
36416;DHT22;22447;44.530;18.620;2023-09-08T15:12:23;30.10;25.50
36416;DHT22;22447;44.530;18.620;2023-09-08T15:14:49;30.00;25.00
36416;DHT22;22447;44.530;18.620;2023-09-08T15:17:14;29.80;25.00
36416;DHT22;22447;44.530;18.620;2023-09-08T15:19:42;29.70;25.80